Pagina principale
METAR-TAF:

METAR-TAF

Aeroporti :

Aeroporto di Treviso-Sant'Angelo

Treviso, Italia

latitudine: 45-39N, longitudine: 012-11E, altezza: 18 m

Osservazione

Il bollettino è stato emesso 49 minuti fa, alle 16:20 UTC
Vento 4 kt da sud-est, variando fra est e sud/sud-ovest
Temperature 22°C
Umidità 50%
Pressione 1015 hPa
Visibilità 10 km o più
Poco nuvoloso ad un'altezza di 3000 ft

METAR: LIPH 131620Z 13004KT 080V210 9999 FEW030 22/11 Q1015

Ora: 19:09 (17:09 UTC)

Previsione

Il bollettino è stato emesso 6 ore e 9 minuti fa, alle 11:00 UTC
Previsione valida dal 13 alle 12 UTC al 14 alle 12 UTC
Vento 10 kt da nord-est
Visibilità 10 km o più
Nubi sparse ad un'altezza di 5000 ft
Temporaneamente
dal 13 alle 12 UTC al 13 alle 15 UTC
pioggia
Evoluzione graduale
dal 13 alle 15 UTC al 13 alle 17 UTC
Vento 5 kt da direzioni variabili

TAF: LIPH 131100Z 1312/1412 05010KT 9999 SCT050 TEMPO 1312/1315 RA BECMG 1315/1317 VRB05KT

Osservazioni e previsioni meteorologiche di più di 4000 aeroporti (messaggi METAR e TAF).

Le stazioni disponibili sono rappresentate dai dischi gialli e rossi sulla carta.

Puntare il mouse per vedere il nome della stazione.

Clicca sopra per visualizzare le osservazioni e previsioni meteorologiche.

Per cambiare la mappa : fare clic sui pulsanti verdi con una croce nera per ingrandire, il pulsante verde con un trattino per diminuire, o sulla freccia verde per le mappe adiacenti.


METAR-TAF: